sensor_id;sensor_type;location;lat;lon;timestamp;temperature;humidity
9762;DHT22;4920;49.594;11.022;2023-12-07T00:01:17;2.50;99.90
9762;DHT22;4920;49.594;11.022;2023-12-07T00:03:46;2.50;99.90
9762;DHT22;4920;49.594;11.022;2023-12-07T00:06:15;2.50;99.90
9762;DHT22;4920;49.594;11.022;2023-12-07T00:08:44;2.50;99.90
9762;DHT22;4920;49.594;11.022;2023-12-07T00:11:13;2.50;99.90
9762;DHT22;4920;49.594;11.022;2023-12-07T00:13:43;2.50;99.90
9762;DHT22;4920;49.594;11.022;2023-12-07T00:16:11;2.50;99.90
9762;DHT22;4920;49.594;11.022;2023-12-07T00:18:42;2.50;99.90
9762;DHT22;4920;49.594;11.022;2023-12-07T00:21:11;2.50;99.90
9762;DHT22;4920;49.594;11.022;2023-12-07T00:23:40;2.50;99.90
9762;DHT22;4920;49.594;11.022;2023-12-07T00:26:09;2.60;99.90
9762;DHT22;4920;49.594;11.022;2023-12-07T00:28:38;2.60;99.90
9762;DHT22;4920;49.594;11.022;2023-12-07T00:31:07;2.60;99.90
9762;DHT22;4920;49.594;11.022;2023-12-07T00:33:36;2.60;99.90
9762;DHT22;4920;49.594;11.022;2023-12-07T00:36:07;2.60;99.90
9762;DHT22;4920;49.594;11.022;2023-12-07T00:38:37;2.70;99.90
9762;DHT22;4920;49.594;11.022;2023-12-07T00:41:06;2.70;99.90
9762;DHT22;4920;49.594;11.022;2023-12-07T00:43:35;2.70;99.90
9762;DHT22;4920;49.594;11.022;2023-12-07T00:46:06;2.70;99.90
9762;DHT22;4920;49.594;11.022;2023-12-07T00:48:35;2.70;99.90
9762;DHT22;4920;49.594;11.022;2023-12-07T00:51:06;2.70;99.90
9762;DHT22;4920;49.594;11.022;2023-12-07T00:53:35;2.70;99.90
9762;DHT22;4920;49.594;11.022;2023-12-07T00:56:05;2.70;99.90
9762;DHT22;4920;49.594;11.022;2023-12-07T00:58:34;2.70;99.90
9762;DHT22;4920;49.594;11.022;2023-12-07T01:01:04;2.70;99.90
9762;DHT22;4920;49.594;11.022;2023-12-07T01:03:33;2.70;99.90
9762;DHT22;4920;49.594;11.022;2023-12-07T01:06:02;2.70;99.90
9762;DHT22;4920;49.594;11.022;2023-12-07T01:08:32;2.70;99.90
9762;DHT22;4920;49.594;11.022;2023-12-07T01:11:02;2.70;99.90
9762;DHT22;4920;49.594;11.022;2023-12-07T01:13:31;2.70;99.90
9762;DHT22;4920;49.594;11.022;2023-12-07T01:16:00;2.70;99.90
9762;DHT22;4920;49.594;11.022;2023-12-07T01:18:29;2.70;99.90
9762;DHT22;4920;49.594;11.022;2023-12-07T01:20:58;2.70;99.90
9762;DHT22;4920;49.594;11.022;2023-12-07T01:23:27;2.80;99.90
9762;DHT22;4920;49.594;11.022;2023-12-07T01:25:58;2.80;99.90
9762;DHT22;4920;49.594;11.022;2023-12-07T01:28:30;2.80;99.90
9762;DHT22;4920;49.594;11.022;2023-12-07T01:30:59;2.80;99.90
9762;DHT22;4920;49.594;11.022;2023-12-07T01:33:28;2.80;99.90
9762;DHT22;4920;49.594;11.022;2023-12-07T01:35:57;2.80;99.90
9762;DHT22;4920;49.594;11.022;2023-12-07T01:38:26;2.70;99.90
9762;DHT22;4920;49.594;11.022;2023-12-07T01:40:55;2.80;99.90
9762;DHT22;4920;49.594;11.022;2023-12-07T01:43:25;2.70;99.90
9762;DHT22;4920;49.594;11.022;2023-12-07T01:45:56;2.80;99.90
9762;DHT22;4920;49.594;11.022;2023-12-07T01:48:26;2.80;99.90
9762;DHT22;4920;49.594;11.022;2023-12-07T01:50:57;2.80;99.90
9762;DHT22;4920;49.594;11.022;2023-12-07T01:53:26;2.80;99.90
9762;DHT22;4920;49.594;11.022;2023-12-07T01:55:57;2.80;99.90
9762;DHT22;4920;49.594;11.022;2023-12-07T01:58:27;2.70;99.90
9762;DHT22;4920;49.594;11.022;2023-12-07T02:00:57;2.70;99.90
9762;DHT22;4920;49.594;11.022;2023-12-07T02:03:26;2.70;99.90
9762;DHT22;4920;49.594;11.022;2023-12-07T02:05:58;2.70;99.90
9762;DHT22;4920;49.594;11.022;2023-12-07T02:08:27;2.60;99.90
9762;DHT22;4920;49.594;11.022;2023-12-07T02:10:55;2.60;99.90
9762;DHT22;4920;49.594;11.022;2023-12-07T02:13:24;2.60;99.90
9762;DHT22;4920;49.594;11.022;2023-12-07T02:15:56;2.60;99.90
9762;DHT22;4920;49.594;11.022;2023-12-07T02:18:32;2.60;99.90
9762;DHT22;4920;49.594;11.022;2023-12-07T02:21:08;2.60;99.90
9762;DHT22;4920;49.594;11.022;2023-12-07T02:23:41;2.50;99.90
9762;DHT22;4920;49.594;11.022;2023-12-07T02:26:51;2.50;99.90
9762;DHT22;4920;49.594;11.022;2023-12-07T02:29:19;2.50;99.90
9762;DHT22;4920;49.594;11.022;2023-12-07T02:31:48;2.50;99.90
9762;DHT22;4920;49.594;11.022;2023-12-07T02:34:17;2.50;99.90
9762;DHT22;4920;49.594;11.022;2023-12-07T02:36:48;2.40;99.90
9762;DHT22;4920;49.594;11.022;2023-12-07T02:39:20;2.40;99.90
9762;DHT22;4920;49.594;11.022;2023-12-07T02:41:51;2.40;99.90
9762;DHT22;4920;49.594;11.022;2023-12-07T02:44:21;2.40;99.90
9762;DHT22;4920;49.594;11.022;2023-12-07T02:46:50;2.40;99.90
9762;DHT22;4920;49.594;11.022;2023-12-07T02:49:19;2.40;99.90
9762;DHT22;4920;49.594;11.022;2023-12-07T02:51:48;2.40;99.90
9762;DHT22;4920;49.594;11.022;2023-12-07T02:54:17;2.30;99.90
9762;DHT22;4920;49.594;11.022;2023-12-07T02:56:47;2.30;99.90
9762;DHT22;4920;49.594;11.022;2023-12-07T02:59:18;2.30;99.90
9762;DHT22;4920;49.594;11.022;2023-12-07T03:01:47;2.20;99.90
9762;DHT22;4920;49.594;11.022;2023-12-07T03:04:17;2.20;99.90
9762;DHT22;4920;49.594;11.022;2023-12-07T03:06:46;2.20;99.90
9762;DHT22;4920;49.594;11.022;2023-12-07T03:09:15;2.10;99.90
9762;DHT22;4920;49.594;11.022;2023-12-07T03:11:44;2.10;99.90
9762;DHT22;4920;49.594;11.022;2023-12-07T03:14:13;2.10;99.90
9762;DHT22;4920;49.594;11.022;2023-12-07T03:16:44;2.00;99.90
9762;DHT22;4920;49.594;11.022;2023-12-07T03:19:13;2.00;99.90
9762;DHT22;4920;49.594;11.022;2023-12-07T03:21:42;2.00;99.90
9762;DHT22;4920;49.594;11.022;2023-12-07T03:24:11;2.00;99.90
9762;DHT22;4920;49.594;11.022;2023-12-07T03:26:40;1.90;99.90
9762;DHT22;4920;49.594;11.022;2023-12-07T03:29:09;1.90;99.90
9762;DHT22;4920;49.594;11.022;2023-12-07T03:31:38;1.90;99.90
9762;DHT22;4920;49.594;11.022;2023-12-07T03:34:09;1.90;99.90
9762;DHT22;4920;49.594;11.022;2023-12-07T03:36:40;1.90;99.90
9762;DHT22;4920;49.594;11.022;2023-12-07T03:39:09;1.90;99.90
9762;DHT22;4920;49.594;11.022;2023-12-07T03:41:38;1.90;99.90
9762;DHT22;4920;49.594;11.022;2023-12-07T03:44:08;1.90;99.90
9762;DHT22;4920;49.594;11.022;2023-12-07T03:46:36;1.90;99.90
9762;DHT22;4920;49.594;11.022;2023-12-07T03:49:05;1.90;99.90
9762;DHT22;4920;49.594;11.022;2023-12-07T03:51:37;1.80;99.90
9762;DHT22;4920;49.594;11.022;2023-12-07T03:54:06;1.80;99.90
9762;DHT22;4920;49.594;11.022;2023-12-07T03:56:35;1.80;99.90
9762;DHT22;4920;49.594;11.022;2023-12-07T03:59:04;1.80;99.90
9762;DHT22;4920;49.594;11.022;2023-12-07T04:01:32;1.80;99.90
9762;DHT22;4920;49.594;11.022;2023-12-07T04:04:01;1.70;99.90
9762;DHT22;4920;49.594;11.022;2023-12-07T04:06:32;1.70;99.90
9762;DHT22;4920;49.594;11.022;2023-12-07T04:09:03;1.60;99.90
9762;DHT22;4920;49.594;11.022;2023-12-07T04:11:32;1.60;99.90
9762;DHT22;4920;49.594;11.022;2023-12-07T04:14:01;1.50;99.90
9762;DHT22;4920;49.594;11.022;2023-12-07T04:16:30;1.50;99.90
9762;DHT22;4920;49.594;11.022;2023-12-07T04:18:59;1.50;99.90
9762;DHT22;4920;49.594;11.022;2023-12-07T04:21:28;1.50;99.90
9762;DHT22;4920;49.594;11.022;2023-12-07T04:23:57;1.40;99.90
9762;DHT22;4920;49.594;11.022;2023-12-07T04:26:28;1.40;99.90
9762;DHT22;4920;49.594;11.022;2023-12-07T04:28:57;1.40;99.90
9762;DHT22;4920;49.594;11.022;2023-12-07T04:31:26;1.40;99.90
9762;DHT22;4920;49.594;11.022;2023-12-07T04:33:55;1.40;99.90
9762;DHT22;4920;49.594;11.022;2023-12-07T04:36:24;1.40;99.90
9762;DHT22;4920;49.594;11.022;2023-12-07T04:38:53;1.40;99.90
9762;DHT22;4920;49.594;11.022;2023-12-07T04:41:22;1.40;99.90
9762;DHT22;4920;49.594;11.022;2023-12-07T04:43:52;1.30;99.90
9762;DHT22;4920;49.594;11.022;2023-12-07T04:46:21;1.30;99.90
9762;DHT22;4920;49.594;11.022;2023-12-07T04:48:50;1.30;99.90
9762;DHT22;4920;49.594;11.022;2023-12-07T04:51:20;1.30;99.90
9762;DHT22;4920;49.594;11.022;2023-12-07T04:53:49;1.20;99.90
9762;DHT22;4920;49.594;11.022;2023-12-07T04:56:22;1.20;99.90
9762;DHT22;4920;49.594;11.022;2023-12-07T04:58:53;1.10;99.90
9762;DHT22;4920;49.594;11.022;2023-12-07T05:01:22;1.00;99.90
9762;DHT22;4920;49.594;11.022;2023-12-07T05:03:51;0.90;99.90
9762;DHT22;4920;49.594;11.022;2023-12-07T05:06:20;0.80;99.90
9762;DHT22;4920;49.594;11.022;2023-12-07T05:08:49;0.70;99.90
9762;DHT22;4920;49.594;11.022;2023-12-07T05:11:18;0.60;99.90
9762;DHT22;4920;49.594;11.022;2023-12-07T05:13:47;0.50;99.90
9762;DHT22;4920;49.594;11.022;2023-12-07T05:16:18;0.50;99.90
9762;DHT22;4920;49.594;11.022;2023-12-07T05:18:47;0.50;99.90
9762;DHT22;4920;49.594;11.022;2023-12-07T05:21:16;0.40;99.90
9762;DHT22;4920;49.594;11.022;2023-12-07T05:23:45;0.40;99.90
9762;DHT22;4920;49.594;11.022;2023-12-07T05:26:14;0.40;99.90
9762;DHT22;4920;49.594;11.022;2023-12-07T05:28:43;0.30;99.90
9762;DHT22;4920;49.594;11.022;2023-12-07T05:31:17;0.10;99.90
9762;DHT22;4920;49.594;11.022;2023-12-07T05:33:46;0.10;99.90
9762;DHT22;4920;49.594;11.022;2023-12-07T05:36:15;-0.10;99.90
9762;DHT22;4920;49.594;11.022;2023-12-07T05:38:45;-0.10;99.90
9762;DHT22;4920;49.594;11.022;2023-12-07T05:41:14;-0.10;99.90
9762;DHT22;4920;49.594;11.022;2023-12-07T05:43:43;-0.20;99.90
9762;DHT22;4920;49.594;11.022;2023-12-07T05:46:11;-0.20;99.90
9762;DHT22;4920;49.594;11.022;2023-12-07T05:48:42;-0.20;99.90
9762;DHT22;4920;49.594;11.022;2023-12-07T05:51:12;-0.20;99.90
9762;DHT22;4920;49.594;11.022;2023-12-07T05:53:42;-0.20;99.90
9762;DHT22;4920;49.594;11.022;2023-12-07T05:56:12;-0.20;99.90
9762;DHT22;4920;49.594;11.022;2023-12-07T05:58:40;-0.20;99.90
9762;DHT22;4920;49.594;11.022;2023-12-07T06:01:09;-0.30;99.90
9762;DHT22;4920;49.594;11.022;2023-12-07T06:03:39;-0.30;99.90
9762;DHT22;4920;49.594;11.022;2023-12-07T06:06:11;-0.30;99.90
9762;DHT22;4920;49.594;11.022;2023-12-07T06:08:40;-0.40;99.90
9762;DHT22;4920;49.594;11.022;2023-12-07T06:11:09;-0.40;99.90
9762;DHT22;4920;49.594;11.022;2023-12-07T06:13:38;-0.50;99.90
9762;DHT22;4920;49.594;11.022;2023-12-07T06:16:07;-0.50;99.90
9762;DHT22;4920;49.594;11.022;2023-12-07T06:18:39;-0.50;99.90
9762;DHT22;4920;49.594;11.022;2023-12-07T06:21:10;-0.50;99.90
9762;DHT22;4920;49.594;11.022;2023-12-07T06:23:39;-0.40;99.90
9762;DHT22;4920;49.594;11.022;2023-12-07T06:26:09;-0.30;99.90
9762;DHT22;4920;49.594;11.022;2023-12-07T06:28:38;-0.10;99.90
9762;DHT22;4920;49.594;11.022;2023-12-07T06:31:08;0.00;99.90
9762;DHT22;4920;49.594;11.022;2023-12-07T06:33:37;0.10;99.90
9762;DHT22;4920;49.594;11.022;2023-12-07T06:36:07;0.30;99.90
9762;DHT22;4920;49.594;11.022;2023-12-07T06:38:38;0.40;99.90
9762;DHT22;4920;49.594;11.022;2023-12-07T06:41:07;0.40;99.90
9762;DHT22;4920;49.594;11.022;2023-12-07T06:43:36;0.50;99.90
9762;DHT22;4920;49.594;11.022;2023-12-07T06:46:05;0.40;99.90
9762;DHT22;4920;49.594;11.022;2023-12-07T06:48:34;0.40;99.90
9762;DHT22;4920;49.594;11.022;2023-12-07T06:51:03;0.30;99.90
9762;DHT22;4920;49.594;11.022;2023-12-07T06:53:32;0.30;99.90
9762;DHT22;4920;49.594;11.022;2023-12-07T06:56:03;0.20;99.90
9762;DHT22;4920;49.594;11.022;2023-12-07T06:58:32;0.20;99.90
9762;DHT22;4920;49.594;11.022;2023-12-07T07:01:01;0.20;99.90
9762;DHT22;4920;49.594;11.022;2023-12-07T07:03:30;0.20;99.90
9762;DHT22;4920;49.594;11.022;2023-12-07T07:05:59;0.20;99.90
9762;DHT22;4920;49.594;11.022;2023-12-07T07:08:28;0.10;99.90
9762;DHT22;4920;49.594;11.022;2023-12-07T07:10:57;0.10;99.90
9762;DHT22;4920;49.594;11.022;2023-12-07T07:13:28;0.10;99.90
9762;DHT22;4920;49.594;11.022;2023-12-07T07:15:57;0.10;99.90
9762;DHT22;4920;49.594;11.022;2023-12-07T07:18:26;0.20;99.90
9762;DHT22;4920;49.594;11.022;2023-12-07T07:20:55;0.20;99.90
9762;DHT22;4920;49.594;11.022;2023-12-07T07:23:24;0.30;99.90
9762;DHT22;4920;49.594;11.022;2023-12-07T07:25:53;0.30;99.90
9762;DHT22;4920;49.594;11.022;2023-12-07T07:28:22;0.40;99.90
9762;DHT22;4920;49.594;11.022;2023-12-07T07:30:53;0.50;99.90
9762;DHT22;4920;49.594;11.022;2023-12-07T07:33:22;0.60;99.90
9762;DHT22;4920;49.594;11.022;2023-12-07T07:35:51;0.70;99.90
9762;DHT22;4920;49.594;11.022;2023-12-07T07:38:22;0.90;99.90
9762;DHT22;4920;49.594;11.022;2023-12-07T07:40:51;1.10;99.90
9762;DHT22;4920;49.594;11.022;2023-12-07T07:43:20;1.20;99.90
9762;DHT22;4920;49.594;11.022;2023-12-07T07:45:49;1.30;99.90
9762;DHT22;4920;49.594;11.022;2023-12-07T07:48:20;1.40;99.90
9762;DHT22;4920;49.594;11.022;2023-12-07T07:50:49;1.50;99.90
9762;DHT22;4920;49.594;11.022;2023-12-07T07:53:17;1.60;99.90
9762;DHT22;4920;49.594;11.022;2023-12-07T07:55:47;1.60;99.90
9762;DHT22;4920;49.594;11.022;2023-12-07T07:58:16;1.70;99.90
9762;DHT22;4920;49.594;11.022;2023-12-07T08:00:45;1.70;99.90
9762;DHT22;4920;49.594;11.022;2023-12-07T08:03:14;1.70;99.90
9762;DHT22;4920;49.594;11.022;2023-12-07T08:05:45;1.70;99.90
9762;DHT22;4920;49.594;11.022;2023-12-07T08:08:14;1.80;99.90
9762;DHT22;4920;49.594;11.022;2023-12-07T08:10:43;1.80;99.90
9762;DHT22;4920;49.594;11.022;2023-12-07T08:13:22;1.90;99.90
9762;DHT22;4920;49.594;11.022;2023-12-07T08:15:51;2.00;99.90
9762;DHT22;4920;49.594;11.022;2023-12-07T08:18:24;2.00;99.90
9762;DHT22;4920;49.594;11.022;2023-12-07T08:20:56;2.10;99.90
9762;DHT22;4920;49.594;11.022;2023-12-07T08:23:25;2.20;99.90
9762;DHT22;4920;49.594;11.022;2023-12-07T08:25:54;2.30;99.90
9762;DHT22;4920;49.594;11.022;2023-12-07T08:28:24;2.40;99.90
9762;DHT22;4920;49.594;11.022;2023-12-07T08:30:53;2.50;99.90
9762;DHT22;4920;49.594;11.022;2023-12-07T08:33:22;2.60;99.90
9762;DHT22;4920;49.594;11.022;2023-12-07T08:35:52;2.70;99.90
9762;DHT22;4920;49.594;11.022;2023-12-07T08:38:24;2.80;99.90
9762;DHT22;4920;49.594;11.022;2023-12-07T08:40:53;2.80;99.90
9762;DHT22;4920;49.594;11.022;2023-12-07T08:43:22;3.00;99.90
9762;DHT22;4920;49.594;11.022;2023-12-07T08:45:51;3.00;99.90
9762;DHT22;4920;49.594;11.022;2023-12-07T08:48:28;3.10;99.90
9762;DHT22;4920;49.594;11.022;2023-12-07T08:50:57;3.10;99.90
9762;DHT22;4920;49.594;11.022;2023-12-07T08:53:27;3.10;99.90
9762;DHT22;4920;49.594;11.022;2023-12-07T08:55:56;3.10;99.90
9762;DHT22;4920;49.594;11.022;2023-12-07T08:58:25;3.10;99.90
9762;DHT22;4920;49.594;11.022;2023-12-07T09:00:54;3.20;99.90
9762;DHT22;4920;49.594;11.022;2023-12-07T09:03:23;3.20;99.90
9762;DHT22;4920;49.594;11.022;2023-12-07T09:05:55;3.30;99.90
9762;DHT22;4920;49.594;11.022;2023-12-07T09:08:24;3.30;99.90
9762;DHT22;4920;49.594;11.022;2023-12-07T09:10:55;3.40;99.90
9762;DHT22;4920;49.594;11.022;2023-12-07T09:13:24;3.50;99.90
9762;DHT22;4920;49.594;11.022;2023-12-07T09:15:53;3.60;99.90
9762;DHT22;4920;49.594;11.022;2023-12-07T09:18:23;3.80;99.90
9762;DHT22;4920;49.594;11.022;2023-12-07T09:20:52;3.90;99.90
9762;DHT22;4920;49.594;11.022;2023-12-07T09:23:21;4.00;99.90
9762;DHT22;4920;49.594;11.022;2023-12-07T09:25:50;4.10;99.90
9762;DHT22;4920;49.594;11.022;2023-12-07T09:28:21;4.20;99.90
9762;DHT22;4920;49.594;11.022;2023-12-07T09:30:51;4.40;99.90
9762;DHT22;4920;49.594;11.022;2023-12-07T09:33:20;4.70;99.90
9762;DHT22;4920;49.594;11.022;2023-12-07T09:35:49;4.90;99.90
9762;DHT22;4920;49.594;11.022;2023-12-07T09:38:19;5.10;99.90
9762;DHT22;4920;49.594;11.022;2023-12-07T09:40:50;5.20;99.90
9762;DHT22;4920;49.594;11.022;2023-12-07T09:43:22;5.40;99.90
9762;DHT22;4920;49.594;11.022;2023-12-07T09:45:54;5.60;99.90
9762;DHT22;4920;49.594;11.022;2023-12-07T09:48:23;5.80;99.90
9762;DHT22;4920;49.594;11.022;2023-12-07T09:50:55;6.00;99.90
9762;DHT22;4920;49.594;11.022;2023-12-07T09:53:25;6.20;99.90
9762;DHT22;4920;49.594;11.022;2023-12-07T09:55:54;6.30;99.90
9762;DHT22;4920;49.594;11.022;2023-12-07T09:58:26;6.30;99.90
9762;DHT22;4920;49.594;11.022;2023-12-07T10:01:07;6.30;99.90
9762;DHT22;4920;49.594;11.022;2023-12-07T10:03:36;6.40;99.90
9762;DHT22;4920;49.594;11.022;2023-12-07T10:06:05;6.50;99.90
9762;DHT22;4920;49.594;11.022;2023-12-07T10:08:34;6.50;99.90
9762;DHT22;4920;49.594;11.022;2023-12-07T10:11:06;6.40;99.90
9762;DHT22;4920;49.594;11.022;2023-12-07T10:13:37;6.40;99.90
9762;DHT22;4920;49.594;11.022;2023-12-07T10:16:10;6.40;99.90
9762;DHT22;4920;49.594;11.022;2023-12-07T10:18:40;6.30;99.90
9762;DHT22;4920;49.594;11.022;2023-12-07T10:21:12;6.30;99.90
9762;DHT22;4920;49.594;11.022;2023-12-07T10:23:42;6.20;99.90
9762;DHT22;4920;49.594;11.022;2023-12-07T10:26:16;6.10;99.90
9762;DHT22;4920;49.594;11.022;2023-12-07T10:28:50;6.00;99.90
9762;DHT22;4920;49.594;11.022;2023-12-07T10:31:23;5.90;99.90
9762;DHT22;4920;49.594;11.022;2023-12-07T10:33:52;5.80;99.90
9762;DHT22;4920;49.594;11.022;2023-12-07T10:36:21;5.60;99.90
9762;DHT22;4920;49.594;11.022;2023-12-07T10:39:01;5.50;99.90
9762;DHT22;4920;49.594;11.022;2023-12-07T10:41:43;5.40;99.90
9762;DHT22;4920;49.594;11.022;2023-12-07T10:44:14;5.30;99.90
9762;DHT22;4920;49.594;11.022;2023-12-07T10:46:44;5.20;99.90
9762;DHT22;4920;49.594;11.022;2023-12-07T10:49:17;5.20;99.90
9762;DHT22;4920;49.594;11.022;2023-12-07T10:52:03;5.30;99.90
9762;DHT22;4920;49.594;11.022;2023-12-07T10:54:37;5.20;99.90
9762;DHT22;4920;49.594;11.022;2023-12-07T10:57:09;5.20;99.90
9762;DHT22;4920;49.594;11.022;2023-12-07T10:59:43;5.20;99.90
9762;DHT22;4920;49.594;11.022;2023-12-07T11:02:14;5.20;99.90
9762;DHT22;4920;49.594;11.022;2023-12-07T11:04:48;5.20;99.90
9762;DHT22;4920;49.594;11.022;2023-12-07T11:07:20;5.20;99.90
9762;DHT22;4920;49.594;11.022;2023-12-07T11:09:56;5.20;99.90
9762;DHT22;4920;49.594;11.022;2023-12-07T11:12:33;5.10;99.90
9762;DHT22;4920;49.594;11.022;2023-12-07T11:15:06;5.20;99.90
9762;DHT22;4920;49.594;11.022;2023-12-07T11:17:49;5.40;99.90
9762;DHT22;4920;49.594;11.022;2023-12-07T11:20:20;5.50;99.90
9762;DHT22;4920;49.594;11.022;2023-12-07T11:22:50;5.60;99.90
9762;DHT22;4920;49.594;11.022;2023-12-07T11:25:20;5.60;99.90
9762;DHT22;4920;49.594;11.022;2023-12-07T11:28:00;5.70;99.90
9762;DHT22;4920;49.594;11.022;2023-12-07T11:30:32;5.70;99.90
9762;DHT22;4920;49.594;11.022;2023-12-07T11:33:03;5.70;99.90
9762;DHT22;4920;49.594;11.022;2023-12-07T11:35:33;5.80;99.90
9762;DHT22;4920;49.594;11.022;2023-12-07T11:38:04;6.00;99.90
9762;DHT22;4920;49.594;11.022;2023-12-07T11:40:39;6.10;99.90
9762;DHT22;4920;49.594;11.022;2023-12-07T11:43:16;6.20;99.90
9762;DHT22;4920;49.594;11.022;2023-12-07T11:45:50;6.40;99.90
9762;DHT22;4920;49.594;11.022;2023-12-07T11:48:20;6.60;99.90
9762;DHT22;4920;49.594;11.022;2023-12-07T11:50:54;6.80;99.90
9762;DHT22;4920;49.594;11.022;2023-12-07T11:53:25;7.00;99.90
9762;DHT22;4920;49.594;11.022;2023-12-07T11:55:54;7.20;99.90
9762;DHT22;4920;49.594;11.022;2023-12-07T11:58:24;7.40;99.90
9762;DHT22;4920;49.594;11.022;2023-12-07T12:00:55;7.50;99.90
9762;DHT22;4920;49.594;11.022;2023-12-07T12:03:25;7.50;99.90
9762;DHT22;4920;49.594;11.022;2023-12-07T12:05:55;7.50;99.90
9762;DHT22;4920;49.594;11.022;2023-12-07T12:08:24;7.50;99.90
9762;DHT22;4920;49.594;11.022;2023-12-07T12:10:54;7.50;99.90
9762;DHT22;4920;49.594;11.022;2023-12-07T12:13:28;7.50;99.90
9762;DHT22;4920;49.594;11.022;2023-12-07T12:16:00;7.60;99.90
9762;DHT22;4920;49.594;11.022;2023-12-07T12:18:33;7.80;99.90
9762;DHT22;4920;49.594;11.022;2023-12-07T12:21:03;8.00;99.90
9762;DHT22;4920;49.594;11.022;2023-12-07T12:23:33;8.10;99.90
9762;DHT22;4920;49.594;11.022;2023-12-07T12:26:02;8.20;99.90
9762;DHT22;4920;49.594;11.022;2023-12-07T12:28:32;8.30;99.90
9762;DHT22;4920;49.594;11.022;2023-12-07T12:31:05;8.10;99.90
9762;DHT22;4920;49.594;11.022;2023-12-07T12:33:36;8.00;99.90
9762;DHT22;4920;49.594;11.022;2023-12-07T12:36:07;7.80;99.90
9762;DHT22;4920;49.594;11.022;2023-12-07T12:38:38;7.80;99.90
9762;DHT22;4920;49.594;11.022;2023-12-07T12:41:11;7.80;99.90
9762;DHT22;4920;49.594;11.022;2023-12-07T12:43:41;8.10;99.90
9762;DHT22;4920;49.594;11.022;2023-12-07T12:46:15;8.20;99.90
9762;DHT22;4920;49.594;11.022;2023-12-07T12:48:55;8.30;99.90
9762;DHT22;4920;49.594;11.022;2023-12-07T12:51:26;8.40;99.90
9762;DHT22;4920;49.594;11.022;2023-12-07T12:53:56;8.40;99.90
9762;DHT22;4920;49.594;11.022;2023-12-07T12:56:27;8.40;99.90
9762;DHT22;4920;49.594;11.022;2023-12-07T12:58:56;8.40;99.90
9762;DHT22;4920;49.594;11.022;2023-12-07T13:01:33;8.30;99.90
9762;DHT22;4920;49.594;11.022;2023-12-07T13:04:02;8.20;99.90
9762;DHT22;4920;49.594;11.022;2023-12-07T13:06:31;8.10;99.90
9762;DHT22;4920;49.594;11.022;2023-12-07T13:09:00;8.10;99.90
9762;DHT22;4920;49.594;11.022;2023-12-07T13:11:30;8.00;99.90
9762;DHT22;4920;49.594;11.022;2023-12-07T13:13:58;8.00;99.90
9762;DHT22;4920;49.594;11.022;2023-12-07T13:16:35;7.90;99.90
9762;DHT22;4920;49.594;11.022;2023-12-07T13:19:05;8.00;99.90
9762;DHT22;4920;49.594;11.022;2023-12-07T13:21:34;8.10;99.90
9762;DHT22;4920;49.594;11.022;2023-12-07T13:24:03;8.20;99.90
9762;DHT22;4920;49.594;11.022;2023-12-07T13:26:35;8.40;99.90
9762;DHT22;4920;49.594;11.022;2023-12-07T13:29:03;8.40;99.90
9762;DHT22;4920;49.594;11.022;2023-12-07T13:31:38;8.40;99.90
9762;DHT22;4920;49.594;11.022;2023-12-07T13:34:08;8.40;99.90
9762;DHT22;4920;49.594;11.022;2023-12-07T13:36:49;8.20;99.90
9762;DHT22;4920;49.594;11.022;2023-12-07T13:39:18;8.00;99.90
9762;DHT22;4920;49.594;11.022;2023-12-07T13:41:57;7.80;99.90
9762;DHT22;4920;49.594;11.022;2023-12-07T13:44:30;7.50;99.90
9762;DHT22;4920;49.594;11.022;2023-12-07T13:47:02;7.40;99.90
9762;DHT22;4920;49.594;11.022;2023-12-07T13:49:31;7.30;99.90
9762;DHT22;4920;49.594;11.022;2023-12-07T13:52:01;7.20;99.90
9762;DHT22;4920;49.594;11.022;2023-12-07T13:54:35;7.30;99.90
9762;DHT22;4920;49.594;11.022;2023-12-07T13:57:07;7.20;99.90
9762;DHT22;4920;49.594;11.022;2023-12-07T13:59:38;7.20;99.90
9762;DHT22;4920;49.594;11.022;2023-12-07T14:02:08;7.20;99.90
9762;DHT22;4920;49.594;11.022;2023-12-07T14:04:38;7.10;99.90
9762;DHT22;4920;49.594;11.022;2023-12-07T14:07:08;7.00;99.90
9762;DHT22;4920;49.594;11.022;2023-12-07T14:09:40;6.80;99.90
9762;DHT22;4920;49.594;11.022;2023-12-07T14:12:23;6.60;99.90
9762;DHT22;4920;49.594;11.022;2023-12-07T14:14:52;6.30;99.90
9762;DHT22;4920;49.594;11.022;2023-12-07T14:17:24;6.10;99.90
9762;DHT22;4920;49.594;11.022;2023-12-07T14:19:56;5.80;99.90
9762;DHT22;4920;49.594;11.022;2023-12-07T14:22:45;5.50;99.90
9762;DHT22;4920;49.594;11.022;2023-12-07T14:25:14;5.10;99.90
9762;DHT22;4920;49.594;11.022;2023-12-07T14:27:45;4.90;99.90
9762;DHT22;4920;49.594;11.022;2023-12-07T14:30:14;4.60;99.90
9762;DHT22;4920;49.594;11.022;2023-12-07T14:32:45;4.40;99.90
9762;DHT22;4920;49.594;11.022;2023-12-07T14:35:20;4.20;99.90
9762;DHT22;4920;49.594;11.022;2023-12-07T14:37:49;4.00;99.90
9762;DHT22;4920;49.594;11.022;2023-12-07T14:40:18;3.90;99.90
9762;DHT22;4920;49.594;11.022;2023-12-07T14:42:47;3.70;99.90
9762;DHT22;4920;49.594;11.022;2023-12-07T14:45:16;3.50;99.90
9762;DHT22;4920;49.594;11.022;2023-12-07T14:47:49;3.40;99.90
9762;DHT22;4920;49.594;11.022;2023-12-07T14:50:19;3.20;99.90
9762;DHT22;4920;49.594;11.022;2023-12-07T14:52:48;3.00;99.90
9762;DHT22;4920;49.594;11.022;2023-12-07T14:55:17;2.90;99.90
9762;DHT22;4920;49.594;11.022;2023-12-07T14:57:46;2.80;99.90
9762;DHT22;4920;49.594;11.022;2023-12-07T15:00:19;2.70;99.90
9762;DHT22;4920;49.594;11.022;2023-12-07T15:02:49;2.50;99.90
9762;DHT22;4920;49.594;11.022;2023-12-07T15:05:17;2.40;99.90
9762;DHT22;4920;49.594;11.022;2023-12-07T15:07:46;2.20;99.90
9762;DHT22;4920;49.594;11.022;2023-12-07T15:10:15;2.10;99.90
9762;DHT22;4920;49.594;11.022;2023-12-07T15:12:44;2.00;99.90
9762;DHT22;4920;49.594;11.022;2023-12-07T15:15:14;1.90;99.90
9762;DHT22;4920;49.594;11.022;2023-12-07T15:17:43;1.80;99.90
9762;DHT22;4920;49.594;11.022;2023-12-07T15:20:14;1.70;99.90
9762;DHT22;4920;49.594;11.022;2023-12-07T15:22:44;1.60;99.90
9762;DHT22;4920;49.594;11.022;2023-12-07T15:25:13;1.50;99.90
9762;DHT22;4920;49.594;11.022;2023-12-07T15:27:42;1.40;99.90
9762;DHT22;4920;49.594;11.022;2023-12-07T15:30:14;1.30;99.90
9762;DHT22;4920;49.594;11.022;2023-12-07T15:32:43;1.20;99.90
9762;DHT22;4920;49.594;11.022;2023-12-07T15:35:14;1.20;99.90
9762;DHT22;4920;49.594;11.022;2023-12-07T15:37:43;1.10;99.90
9762;DHT22;4920;49.594;11.022;2023-12-07T15:40:12;1.00;99.90
9762;DHT22;4920;49.594;11.022;2023-12-07T15:42:41;0.90;99.90
9762;DHT22;4920;49.594;11.022;2023-12-07T15:45:10;0.80;99.90
9762;DHT22;4920;49.594;11.022;2023-12-07T15:47:39;0.70;99.90
9762;DHT22;4920;49.594;11.022;2023-12-07T15:50:09;0.60;99.90
9762;DHT22;4920;49.594;11.022;2023-12-07T15:52:40;0.60;99.90
9762;DHT22;4920;49.594;11.022;2023-12-07T15:55:09;0.50;99.90
9762;DHT22;4920;49.594;11.022;2023-12-07T15:57:38;0.50;99.90
9762;DHT22;4920;49.594;11.022;2023-12-07T16:00:08;0.50;99.90
9762;DHT22;4920;49.594;11.022;2023-12-07T16:02:37;0.50;99.90
9762;DHT22;4920;49.594;11.022;2023-12-07T16:05:07;0.50;99.90
9762;DHT22;4920;49.594;11.022;2023-12-07T16:07:36;0.40;99.90
9762;DHT22;4920;49.594;11.022;2023-12-07T16:10:09;0.40;99.90
9762;DHT22;4920;49.594;11.022;2023-12-07T16:12:38;0.40;99.90
9762;DHT22;4920;49.594;11.022;2023-12-07T16:15:08;0.30;99.90
9762;DHT22;4920;49.594;11.022;2023-12-07T16:17:37;0.30;99.90
9762;DHT22;4920;49.594;11.022;2023-12-07T16:20:07;0.20;99.90